createdAt,value
2023-05-23T00:00:31.467Z,133.88
2023-05-23T00:01:32.146Z,133.27
2023-05-23T00:02:31.464Z,132.06
2023-05-23T00:03:31.549Z,133.87
2023-05-23T00:04:31.558Z,132.17
2023-05-23T00:05:31.481Z,130.85
2023-05-23T00:06:31.487Z,133.98
2023-05-23T00:07:31.522Z,129.81
2023-05-23T00:08:31.536Z,130.89
2023-05-23T00:09:31.564Z,132.68
2023-05-23T00:10:31.597Z,131.19
2023-05-23T00:11:31.647Z,129.75
2023-05-23T00:12:31.681Z,132.14
2023-05-23T00:13:31.716Z,129.50
2023-05-23T00:14:31.742Z,128.42
2023-05-23T00:15:31.795Z,128.24
2023-05-23T00:16:31.891Z,128.82
2023-05-23T00:17:31.846Z,127.70
2023-05-23T00:18:31.851Z,129.97
2023-05-23T00:19:31.947Z,128.18
2023-05-23T00:20:32.234Z,128.04
2023-05-23T00:21:31.872Z,129.76
2023-05-23T00:22:31.849Z,128.25
2023-05-23T00:23:31.872Z,127.17
2023-05-23T00:24:31.907Z,126.72
2023-05-23T00:25:31.994Z,125.16
2023-05-23T00:26:31.977Z,127.71
2023-05-23T00:27:32.020Z,125.95
2023-05-23T00:28:32.038Z,127.73
2023-05-23T00:29:32.066Z,128.12
2023-05-23T00:30:32.096Z,125.94
2023-05-23T00:31:32.194Z,126.86
2023-05-23T00:32:32.152Z,125.62
2023-05-23T00:33:32.150Z,125.85
2023-05-23T00:34:32.188Z,124.58
2023-05-23T00:35:32.209Z,123.38
2023-05-23T00:36:32.295Z,123.41
2023-05-23T00:37:32.214Z,125.15
2023-05-23T00:38:32.217Z,123.22
2023-05-23T00:39:32.241Z,124.73
2023-05-23T00:40:32.246Z,122.52
2023-05-23T00:41:32.310Z,122.02
2023-05-23T00:42:32.273Z,123.77
2023-05-23T00:43:32.362Z,123.35
2023-05-23T00:44:32.276Z,125.30
2023-05-23T00:45:32.263Z,125.36
2023-05-23T00:46:32.262Z,124.60
2023-05-23T00:47:32.297Z,121.03
2023-05-23T00:48:32.213Z,120.81
2023-05-23T00:49:32.207Z,120.65
2023-05-23T00:50:32.186Z,120.02
2023-05-23T00:51:32.174Z,121.83
2023-05-23T00:52:32.267Z,120.77
2023-05-23T00:53:32.183Z,122.49
2023-05-23T00:54:32.194Z,122.99
2023-05-23T00:55:32.192Z,120.30
2023-05-23T00:56:32.200Z,118.08
2023-05-23T00:57:32.224Z,120.20
2023-05-23T00:58:32.324Z,119.14
2023-05-23T00:59:32.255Z,119.16
2023-05-23T01:00:32.238Z,119.07
2023-05-23T01:01:32.280Z,119.52
2023-05-23T01:02:32.311Z,119.06
2023-05-23T01:03:32.335Z,117.12
2023-05-23T01:04:32.228Z,118.70
2023-05-23T01:05:32.205Z,118.31
2023-05-23T01:06:32.209Z,118.68
2023-05-23T01:07:32.198Z,118.16
2023-05-23T01:08:32.261Z,120.17
2023-05-23T01:09:32.198Z,121.07
2023-05-23T01:10:32.187Z,119.93
2023-05-23T01:11:32.187Z,119.47
2023-05-23T01:12:32.244Z,119.03
2023-05-23T01:13:32.199Z,119.33
2023-05-23T01:14:32.172Z,117.24
2023-05-23T01:15:32.146Z,117.02
2023-05-23T01:16:32.194Z,118.07
2023-05-23T01:17:32.144Z,117.23
2023-05-23T01:18:32.119Z,117.34
2023-05-23T01:19:32.223Z,120.41
2023-05-23T01:20:32.134Z,116.07
2023-05-23T01:21:32.139Z,115.83
2023-05-23T01:22:32.154Z,116.12
2023-05-23T01:23:32.153Z,117.08
2023-05-23T01:24:32.250Z,113.98
2023-05-23T01:25:32.157Z,117.92
2023-05-23T01:26:32.178Z,116.55
2023-05-23T01:27:32.206Z,115.65
2023-05-23T01:28:32.299Z,114.57
2023-05-23T01:29:32.286Z,119.12
2023-05-23T01:30:32.312Z,115.72
2023-05-23T01:31:32.344Z,115.86
2023-05-23T01:32:32.375Z,113.35
2023-05-23T01:33:32.340Z,113.43
2023-05-23T01:34:32.339Z,116.06
2023-05-23T01:35:32.352Z,113.76
2023-05-23T01:36:32.365Z,113.20
2023-05-23T01:37:32.357Z,114.45
2023-05-23T01:38:32.354Z,114.35
2023-05-23T01:39:32.428Z,113.83
2023-05-23T01:40:32.470Z,112.15
2023-05-23T01:41:32.376Z,115.96
2023-05-23T01:42:32.359Z,114.43
2023-05-23T01:43:32.360Z,115.83
2023-05-23T01:44:32.347Z,115.73
2023-05-23T01:45:32.369Z,115.30
2023-05-23T01:46:32.364Z,114.89
2023-05-23T01:47:32.382Z,111.10
2023-05-23T01:48:32.395Z,113.28
2023-05-23T01:49:32.413Z,113.81
2023-05-23T01:50:32.442Z,110.96
2023-05-23T01:51:32.466Z,111.59
2023-05-23T01:52:32.493Z,110.72
2023-05-23T01:53:32.504Z,112.69
2023-05-23T01:54:32.596Z,113.33
2023-05-23T01:55:32.542Z,111.27
2023-05-23T01:56:32.672Z,111.76
2023-05-23T01:57:32.587Z,110.69
2023-05-23T01:58:32.594Z,113.24
2023-05-23T01:59:32.573Z,113.53
2023-05-23T02:00:32.631Z,112.75
2023-05-23T02:01:32.663Z,108.45
2023-05-23T02:02:32.720Z,109.36
2023-05-23T02:03:32.589Z,109.01
2023-05-23T02:04:32.531Z,109.24
2023-05-23T02:05:32.573Z,110.42
2023-05-23T02:06:32.582Z,109.48
2023-05-23T02:07:32.550Z,109.73
2023-05-23T02:08:32.554Z,110.40
2023-05-23T02:09:32.538Z,108.90
2023-05-23T02:10:32.538Z,108.50
2023-05-23T02:11:32.585Z,110.02
2023-05-23T02:12:32.647Z,111.42
2023-05-23T02:13:32.570Z,106.13
2023-05-23T02:14:32.612Z,107.46
2023-05-23T02:15:32.631Z,108.32
2023-05-23T02:16:32.657Z,108.56
2023-05-23T02:17:32.663Z,110.30
2023-05-23T02:18:32.653Z,109.39
2023-05-23T02:19:32.722Z,107.03
2023-05-23T02:20:32.725Z,110.35
2023-05-23T02:21:35.043Z,109.49
2023-05-23T02:22:32.708Z,106.98
2023-05-23T02:23:32.694Z,106.17
2023-05-23T02:24:32.711Z,107.61
2023-05-23T02:25:32.674Z,105.36
2023-05-23T02:26:32.645Z,105.45
2023-05-23T02:27:32.639Z,104.74
2023-05-23T02:28:32.702Z,105.82
2023-05-23T02:29:32.606Z,106.51
2023-05-23T02:30:32.588Z,107.37
2023-05-23T02:31:32.668Z,105.52
2023-05-23T02:32:33.204Z,102.54
2023-05-23T02:33:32.526Z,105.45
2023-05-23T02:34:32.528Z,102.87
2023-05-23T02:35:32.501Z,104.57
2023-05-23T02:36:32.486Z,102.78
2023-05-23T02:37:32.476Z,101.53
2023-05-23T02:38:32.438Z,104.42
2023-05-23T02:39:32.422Z,102.92
2023-05-23T02:40:32.406Z,101.24
2023-05-23T02:41:32.505Z,101.34
2023-05-23T02:42:32.370Z,100.05
2023-05-23T02:43:32.354Z,102.10
2023-05-23T02:44:32.418Z,102.70
2023-05-23T02:45:32.328Z,100.73
2023-05-23T02:46:32.363Z,99.84
2023-05-23T02:47:32.332Z,100.20
2023-05-23T02:48:32.284Z,100.82
2023-05-23T02:49:32.260Z,100.07
2023-05-23T02:50:32.236Z,98.03
2023-05-23T02:51:32.232Z,97.57
2023-05-23T02:52:32.198Z,97.25
2023-05-23T02:53:32.173Z,97.62
2023-05-23T02:54:32.169Z,96.59
2023-05-23T02:55:32.151Z,98.93
2023-05-23T02:56:32.124Z,97.53
2023-05-23T02:57:32.100Z,97.69
2023-05-23T02:58:32.083Z,96.74
2023-05-23T02:59:32.061Z,97.08
2023-05-23T03:00:32.133Z,96.13
2023-05-23T03:01:32.141Z,95.52
2023-05-23T03:02:32.138Z,94.17
2023-05-23T03:03:32.082Z,95.58
2023-05-23T03:04:32.684Z,97.45
2023-05-23T03:05:31.977Z,96.57
2023-05-23T03:06:31.948Z,95.93
2023-05-23T03:07:31.896Z,95.22
2023-05-23T03:08:31.870Z,94.05
2023-05-23T03:09:31.850Z,95.14
2023-05-23T03:10:31.830Z,92.71
2023-05-23T03:11:31.827Z,93.65
2023-05-23T03:12:31.802Z,95.78
2023-05-23T03:13:32.698Z,92.79
2023-05-23T03:14:31.772Z,91.14
2023-05-23T03:15:31.746Z,92.54
2023-05-23T03:16:31.897Z,93.25
2023-05-23T03:17:31.722Z,91.07
2023-05-23T03:18:31.692Z,92.46
2023-05-23T03:19:33.573Z,94.48
2023-05-23T03:20:31.644Z,94.60
2023-05-23T03:21:31.619Z,94.13
2023-05-23T03:22:31.600Z,94.60
2023-05-23T03:23:31.581Z,92.55
2023-05-23T03:24:31.563Z,90.97
2023-05-23T03:25:31.542Z,91.42
2023-05-23T03:26:31.710Z,91.04
2023-05-23T03:27:31.520Z,91.92
2023-05-23T03:28:31.489Z,88.41
2023-05-23T03:29:31.486Z,88.71
2023-05-23T03:30:31.459Z,91.73
2023-05-23T03:31:31.456Z,88.70
2023-05-23T03:32:31.570Z,88.34
2023-05-23T03:33:31.412Z,88.02
2023-05-23T03:34:31.455Z,88.94
2023-05-23T03:35:31.366Z,88.08
2023-05-23T03:36:31.353Z,88.81
2023-05-23T03:37:31.343Z,86.04
2023-05-23T03:38:31.386Z,88.26
2023-05-23T03:39:31.308Z,87.47
2023-05-23T03:40:31.331Z,87.76
2023-05-23T03:41:31.275Z,89.46
2023-05-23T03:42:31.308Z,88.11
2023-05-23T03:43:31.243Z,86.60
2023-05-23T03:44:31.227Z,84.29
2023-05-23T03:45:31.236Z,83.40
2023-05-23T03:46:31.303Z,86.99
2023-05-23T03:47:31.217Z,84.02
2023-05-23T03:48:31.311Z,85.43
2023-05-23T03:49:31.160Z,87.75
2023-05-23T03:50:31.154Z,84.34
2023-05-23T03:51:31.138Z,87.45
2023-05-23T03:52:31.122Z,86.47
2023-05-23T03:53:31.102Z,84.02
2023-05-23T03:54:31.086Z,84.11
2023-05-23T03:55:31.069Z,85.84
2023-05-23T03:56:31.060Z,85.30
2023-05-23T03:57:31.041Z,83.55
2023-05-23T03:58:31.043Z,81.23
2023-05-23T03:59:31.040Z,83.62
2023-05-23T04:00:31.014Z,85.10
2023-05-23T04:01:30.988Z,81.83
2023-05-23T04:02:31.033Z,83.31
2023-05-23T04:03:31.048Z,84.27
2023-05-23T04:04:31.126Z,83.39
2023-05-23T04:05:30.931Z,83.40
2023-05-23T04:06:30.941Z,83.59
2023-05-23T04:07:30.917Z,84.71
2023-05-23T04:08:30.907Z,77.56
2023-05-23T04:09:30.978Z,82.59
2023-05-23T04:10:30.946Z,79.51
2023-05-23T04:11:30.871Z,80.78
2023-05-23T04:12:30.859Z,81.21
2023-05-23T04:13:30.848Z,80.25
2023-05-23T04:14:31.217Z,80.37
2023-05-23T04:15:30.802Z,78.46
2023-05-23T04:16:30.854Z,77.53
2023-05-23T04:17:30.849Z,78.64
2023-05-23T04:18:30.770Z,81.55
2023-05-23T04:19:30.808Z,80.24
2023-05-23T04:20:30.825Z,81.57
2023-05-23T04:21:30.704Z,79.04
2023-05-23T04:22:30.685Z,81.19
2023-05-23T04:23:30.675Z,80.96
2023-05-23T04:24:30.684Z,76.19
2023-05-23T04:25:30.621Z,79.74
2023-05-23T04:26:30.619Z,76.16
2023-05-23T04:27:30.609Z,77.48
2023-05-23T04:28:30.591Z,81.40
2023-05-23T04:29:30.567Z,76.21
2023-05-23T04:30:30.636Z,79.97
2023-05-23T04:31:30.560Z,77.32
2023-05-23T04:32:30.545Z,77.18
2023-05-23T04:33:30.504Z,78.17
2023-05-23T04:34:30.465Z,77.59
2023-05-23T04:35:30.446Z,78.85
2023-05-23T04:36:30.823Z,76.07
2023-05-23T04:37:30.407Z,76.37
2023-05-23T04:38:30.384Z,75.77
2023-05-23T04:39:30.368Z,77.57
2023-05-23T04:40:30.342Z,78.28
2023-05-23T04:41:30.371Z,76.09
2023-05-23T04:42:30.307Z,73.77
2023-05-23T04:43:30.294Z,75.69
2023-05-23T04:44:30.312Z,74.69
2023-05-23T04:45:30.257Z,75.48
2023-05-23T04:46:30.284Z,76.57
2023-05-23T04:47:30.243Z,74.98
2023-05-23T04:48:30.216Z,72.20
2023-05-23T04:49:30.200Z,75.32
2023-05-23T04:50:30.175Z,74.96
2023-05-23T04:51:30.155Z,74.86
2023-05-23T04:52:30.229Z,75.01
2023-05-23T04:53:30.132Z,74.72
2023-05-23T04:54:30.121Z,74.85
2023-05-23T04:55:30.101Z,74.16
2023-05-23T04:56:30.081Z,73.50
2023-05-23T04:57:30.058Z,72.21
2023-05-23T04:58:30.043Z,73.05
2023-05-23T04:59:30.025Z,72.27
2023-05-23T05:00:30.007Z,72.80
2023-05-23T05:01:30.034Z,70.74
2023-05-23T05:02:29.967Z,72.92
2023-05-23T05:03:29.933Z,72.06
2023-05-23T05:04:29.980Z,73.18
2023-05-23T05:05:29.890Z,70.03
2023-05-23T05:06:29.878Z,71.04
2023-05-23T05:07:29.859Z,70.91
2023-05-23T05:08:29.933Z,70.15
2023-05-23T05:09:29.804Z,71.00
2023-05-23T05:10:29.863Z,70.03
2023-05-23T05:11:29.763Z,69.59
2023-05-23T05:12:29.737Z,73.74
2023-05-23T05:13:29.746Z,71.75
2023-05-23T05:14:29.780Z,71.81
2023-05-23T05:15:29.683Z,69.95
2023-05-23T05:16:29.704Z,71.28
2023-05-23T05:17:29.671Z,70.92
2023-05-23T05:18:29.626Z,69.12
2023-05-23T05:19:29.703Z,70.77
2023-05-23T05:20:29.585Z,69.56
2023-05-23T05:21:29.556Z,60.10
2023-05-23T05:22:29.551Z,43.50
2023-05-23T05:23:29.658Z,29.78
2023-05-23T05:24:29.591Z,27.17
2023-05-23T05:25:29.491Z,44.74
2023-05-23T05:26:29.461Z,38.88
2023-05-23T05:27:29.446Z,42.15
2023-05-23T05:28:29.436Z,39.25
2023-05-23T05:29:29.415Z,44.49
2023-05-23T05:30:29.396Z,46.45
2023-05-23T05:31:29.507Z,51.00
2023-05-23T05:32:29.422Z,45.98
2023-05-23T05:33:30.255Z,52.85
2023-05-23T05:34:29.399Z,44.41
2023-05-23T05:35:29.437Z,42.04
2023-05-23T05:36:29.526Z,43.83
2023-05-23T05:37:29.540Z,47.44
2023-05-23T05:38:29.583Z,49.49
2023-05-23T05:39:29.629Z,40.64
2023-05-23T05:40:29.679Z,45.35
2023-05-23T05:41:29.704Z,31.76
2023-05-23T05:42:29.745Z,40.86
2023-05-23T05:43:29.795Z,32.85
2023-05-23T05:44:29.822Z,29.09
2023-05-23T05:45:29.865Z,29.22
2023-05-23T05:46:29.929Z,31.32
2023-05-23T05:47:29.948Z,27.84
2023-05-23T05:48:29.969Z,26.48
2023-05-23T05:49:30.008Z,31.62
2023-05-23T05:50:30.041Z,31.04
2023-05-23T05:51:30.075Z,27.77
2023-05-23T05:52:30.120Z,34.10
2023-05-23T05:53:30.145Z,25.00
2023-05-23T05:54:30.192Z,27.58
2023-05-23T05:55:30.218Z,31.85
2023-05-23T05:56:30.350Z,40.57
2023-05-23T05:57:30.284Z,29.56
2023-05-23T05:58:30.328Z,25.44
2023-05-23T05:59:32.318Z,31.56
2023-05-23T06:00:30.449Z,32.27
2023-05-23T06:01:30.394Z,27.88
2023-05-23T06:02:30.487Z,31.81
2023-05-23T06:03:30.604Z,28.07
2023-05-23T06:04:30.514Z,26.95
2023-05-23T06:05:30.506Z,25.67
2023-05-23T06:06:30.555Z,37.49
2023-05-23T06:07:30.577Z,36.53
2023-05-23T06:08:30.673Z,43.90
2023-05-23T06:09:30.651Z,46.52
2023-05-23T06:10:30.695Z,44.15
2023-05-23T06:11:30.790Z,37.70
2023-05-23T06:12:30.830Z,40.66
2023-05-23T06:13:30.759Z,51.87
2023-05-23T06:14:31.283Z,56.31
2023-05-23T06:15:30.793Z,62.57
2023-05-23T06:16:30.812Z,63.86
2023-05-23T06:17:30.846Z,71.24
2023-05-23T06:18:30.795Z,77.49
2023-05-23T06:19:30.831Z,90.95
2023-05-23T06:20:30.793Z,102.26
2023-05-23T06:21:30.767Z,110.12
2023-05-23T06:22:30.762Z,111.67
2023-05-23T06:23:30.755Z,114.03
2023-05-23T06:24:30.750Z,116.55
2023-05-23T06:25:30.877Z,116.86
2023-05-23T06:26:30.756Z,118.98
2023-05-23T06:27:30.750Z,120.99
2023-05-23T06:28:31.696Z,123.58
2023-05-23T06:29:30.769Z,125.23
2023-05-23T06:30:30.765Z,122.46
2023-05-23T06:31:30.828Z,127.64
2023-05-23T06:32:30.809Z,125.11
2023-05-23T06:33:31.708Z,127.44
2023-05-23T06:34:30.829Z,127.87
2023-05-23T06:35:30.841Z,126.71
2023-05-23T06:36:30.854Z,130.48
2023-05-23T06:37:30.894Z,133.12
2023-05-23T06:38:30.894Z,129.86
2023-05-23T06:39:30.919Z,127.70
2023-05-23T06:40:30.939Z,129.42
2023-05-23T06:41:30.953Z,128.86
2023-05-23T06:42:30.968Z,131.28
2023-05-23T06:43:30.990Z,132.49
2023-05-23T06:44:31.106Z,130.04
2023-05-23T06:45:31.064Z,131.18
2023-05-23T06:46:31.136Z,132.41
2023-05-23T06:47:31.112Z,133.73
2023-05-23T06:48:31.122Z,134.96
2023-05-23T06:49:31.204Z,133.44
2023-05-23T06:50:31.166Z,132.42
2023-05-23T06:51:31.257Z,130.64
2023-05-23T06:52:31.224Z,133.70
2023-05-23T06:53:31.269Z,136.21
2023-05-23T06:54:31.280Z,131.55
2023-05-23T06:55:31.309Z,133.20
2023-05-23T06:56:31.354Z,130.44
2023-05-23T06:57:32.282Z,135.27
2023-05-23T06:58:31.402Z,135.59
2023-05-23T06:59:31.444Z,136.19
2023-05-23T07:00:31.606Z,137.45
2023-05-23T07:01:31.573Z,135.27
2023-05-23T07:02:31.557Z,135.01
2023-05-23T07:03:31.586Z,137.07
2023-05-23T07:04:31.610Z,135.64
2023-05-23T07:05:31.688Z,133.77
2023-05-23T07:06:31.729Z,136.84
2023-05-23T07:07:31.701Z,134.64
2023-05-23T07:08:31.738Z,136.54
2023-05-23T07:09:31.774Z,138.58
2023-05-23T07:10:31.792Z,135.58
2023-05-23T07:11:31.841Z,134.85
2023-05-23T07:12:34.651Z,135.09
2023-05-23T07:13:31.791Z,135.67
2023-05-23T07:14:31.776Z,136.78
2023-05-23T07:15:31.745Z,137.34
2023-05-23T07:16:31.874Z,137.15
2023-05-23T07:17:31.756Z,137.76
2023-05-23T07:18:31.688Z,137.70
2023-05-23T07:19:31.825Z,136.42
2023-05-23T07:20:32.298Z,135.72
2023-05-23T07:21:31.636Z,138.67
2023-05-23T07:22:31.627Z,135.27
2023-05-23T07:23:31.610Z,139.50
2023-05-23T07:24:31.585Z,142.16
2023-05-23T07:25:31.563Z,144.14
2023-05-23T07:26:31.595Z,143.32
2023-05-23T07:27:31.526Z,148.02
2023-05-23T07:28:31.514Z,151.75
2023-05-23T07:29:31.501Z,158.43
2023-05-23T07:30:33.368Z,163.08
2023-05-23T07:31:31.595Z,168.15
2023-05-23T07:32:31.599Z,171.98
2023-05-23T07:33:31.381Z,176.08
2023-05-23T07:34:31.359Z,178.14
2023-05-23T07:35:31.336Z,184.34
2023-05-23T07:36:31.308Z,184.19
2023-05-23T07:37:31.307Z,189.22
2023-05-23T07:38:31.229Z,195.35
2023-05-23T07:39:31.249Z,201.10
2023-05-23T07:40:31.169Z,203.16
2023-05-23T07:41:31.168Z,208.87
2023-05-23T07:42:32.176Z,209.29
2023-05-23T07:43:31.238Z,211.67
2023-05-23T07:44:31.078Z,218.46
2023-05-23T07:45:31.031Z,229.01
2023-05-23T07:46:31.103Z,245.33
2023-05-23T07:47:30.991Z,249.39
2023-05-23T07:48:30.936Z,249.82
2023-05-23T07:49:31.101Z,249.83
2023-05-23T07:50:30.862Z,249.68
2023-05-23T07:51:30.913Z,249.22
2023-05-23T07:52:30.916Z,249.29
2023-05-23T07:53:30.944Z,249.38
2023-05-23T07:54:30.984Z,250.26
2023-05-23T07:55:31.013Z,249.26
2023-05-23T07:56:31.061Z,249.69
2023-05-23T07:57:31.870Z,250.00
2023-05-23T07:58:31.112Z,249.03
2023-05-23T07:59:31.152Z,249.00
2023-05-23T08:00:31.171Z,248.34
2023-05-23T08:01:31.328Z,250.00
2023-05-23T08:02:31.399Z,250.00
2023-05-23T08:03:31.248Z,247.49
2023-05-23T08:04:31.346Z,250.00
2023-05-23T08:05:31.291Z,249.99
2023-05-23T08:06:31.325Z,250.00
2023-05-23T08:07:31.329Z,250.00
2023-05-23T08:08:31.357Z,249.68
2023-05-23T08:09:31.389Z,247.04
2023-05-23T08:10:31.408Z,249.75
2023-05-23T08:11:31.419Z,243.76
2023-05-23T08:12:31.456Z,249.07
2023-05-23T08:13:33.233Z,249.62
2023-05-23T08:14:38.700Z,243.51
2023-05-23T08:15:32.469Z,243.63
2023-05-23T08:16:31.505Z,219.38
2023-05-23T08:17:32.441Z,201.19
2023-05-23T08:18:31.402Z,191.32
2023-05-23T08:19:31.439Z,169.80
2023-05-23T08:20:31.354Z,162.07
2023-05-23T08:21:31.303Z,150.12
2023-05-23T08:22:31.286Z,150.20
2023-05-23T08:23:31.248Z,153.92
2023-05-23T08:24:31.217Z,151.35
2023-05-23T08:25:31.198Z,146.78
2023-05-23T08:26:31.168Z,141.33
2023-05-23T08:27:31.152Z,142.26
2023-05-23T08:28:31.201Z,144.43
2023-05-23T08:29:31.341Z,148.57
2023-05-23T08:30:31.312Z,151.35
2023-05-23T08:31:31.318Z,152.13
2023-05-23T08:32:31.398Z,157.36
2023-05-23T08:33:31.372Z,166.15
2023-05-23T08:34:32.321Z,169.66
2023-05-23T08:35:31.438Z,173.21
2023-05-23T08:36:32.324Z,178.03
2023-05-23T08:37:31.456Z,190.40
2023-05-23T08:38:31.502Z,195.94
2023-05-23T08:39:31.495Z,196.59
2023-05-23T08:40:31.509Z,201.77
2023-05-23T08:41:31.502Z,202.07
2023-05-23T08:42:31.548Z,206.82
2023-05-23T08:43:31.523Z,207.94
2023-05-23T08:44:31.533Z,210.24
2023-05-23T08:45:31.860Z,213.90
2023-05-23T08:46:31.645Z,215.35
2023-05-23T08:47:31.561Z,220.22
2023-05-23T08:48:31.540Z,220.32
2023-05-23T08:49:31.545Z,225.86
2023-05-23T08:50:31.835Z,228.98
2023-05-23T08:51:31.536Z,230.69
2023-05-23T08:52:31.529Z,236.40
2023-05-23T08:53:31.524Z,237.23
2023-05-23T08:54:31.520Z,244.67
2023-05-23T08:55:31.837Z,249.12
2023-05-23T08:56:31.473Z,250.00
2023-05-23T08:57:31.470Z,249.36
2023-05-23T08:58:31.447Z,250.57
2023-05-23T08:59:31.420Z,250.00
2023-05-23T09:00:31.411Z,250.00
2023-05-23T09:01:31.413Z,248.43
2023-05-23T09:02:32.447Z,249.71
2023-05-23T09:03:31.309Z,247.80
2023-05-23T09:04:31.288Z,250.00
2023-05-23T09:05:31.326Z,249.72
2023-05-23T09:06:31.210Z,249.54
2023-05-23T09:07:31.167Z,249.11
2023-05-23T09:08:31.132Z,249.77
2023-05-23T09:09:31.100Z,249.49
2023-05-23T09:10:31.061Z,250.00
2023-05-23T09:11:31.041Z,250.84
2023-05-23T09:12:30.996Z,249.51
2023-05-23T09:13:30.959Z,250.00
2023-05-23T09:14:30.935Z,250.00
2023-05-23T09:15:30.896Z,249.65
2023-05-23T09:16:30.875Z,246.76
2023-05-23T09:17:30.842Z,249.29
2023-05-23T09:18:30.783Z,249.16
2023-05-23T09:19:30.788Z,245.17
2023-05-23T09:20:30.841Z,231.68
2023-05-23T09:21:30.797Z,229.63
2023-05-23T09:22:30.676Z,227.83
2023-05-23T09:23:30.643Z,227.07
2023-05-23T09:24:30.609Z,227.34
2023-05-23T09:25:30.573Z,234.54
2023-05-23T09:26:30.544Z,245.24
2023-05-23T09:27:30.572Z,249.11
2023-05-23T09:28:30.530Z,246.51
2023-05-23T09:29:30.527Z,245.15
2023-05-23T09:30:30.603Z,243.70
2023-05-23T09:31:30.506Z,246.04
2023-05-23T09:32:30.460Z,246.14
2023-05-23T09:33:30.405Z,245.26
2023-05-23T09:34:30.364Z,251.18
2023-05-23T09:35:30.357Z,250.00
2023-05-23T09:36:30.310Z,250.00
2023-05-23T09:37:30.290Z,249.36
2023-05-23T09:38:30.293Z,248.24
2023-05-23T09:39:30.352Z,249.01
2023-05-23T09:40:30.292Z,249.13
2023-05-23T09:41:30.362Z,250.00
2023-05-23T09:42:30.270Z,249.68
2023-05-23T09:43:30.274Z,249.47
2023-05-23T09:44:30.282Z,248.39
2023-05-23T09:45:30.265Z,249.56
2023-05-23T09:46:30.389Z,249.89
2023-05-23T09:47:30.307Z,249.40
2023-05-23T09:48:30.273Z,250.00
2023-05-23T09:49:30.349Z,249.16
2023-05-23T09:50:30.360Z,249.98
2023-05-23T09:51:30.308Z,249.75
2023-05-23T09:52:30.314Z,248.90
2023-05-23T09:53:30.314Z,250.00
2023-05-23T09:54:30.319Z,250.00
2023-05-23T09:55:30.433Z,249.36
2023-05-23T09:56:30.421Z,250.00
2023-05-23T09:57:30.358Z,249.02
2023-05-23T09:58:30.414Z,250.00
2023-05-23T09:59:30.427Z,249.05
2023-05-23T10:00:30.457Z,247.73
2023-05-23T10:01:30.537Z,249.85
2023-05-23T10:02:30.507Z,252.63
2023-05-23T10:03:31.375Z,260.72
2023-05-23T10:04:30.540Z,250.00
2023-05-23T10:05:30.861Z,248.03
2023-05-23T10:06:30.567Z,245.57
2023-05-23T10:07:30.589Z,245.74
2023-05-23T10:08:30.606Z,245.49
2023-05-23T10:09:30.633Z,248.89
2023-05-23T10:10:30.677Z,249.87
2023-05-23T10:11:30.670Z,248.81
2023-05-23T10:12:30.697Z,246.79
2023-05-23T10:13:30.711Z,245.11
2023-05-23T10:14:30.749Z,245.31
2023-05-23T10:15:30.762Z,243.24
2023-05-23T10:16:30.825Z,241.24
2023-05-23T10:17:30.770Z,239.38
2023-05-23T10:18:33.364Z,239.38
2023-05-23T10:19:30.705Z,238.61
2023-05-23T10:20:30.615Z,236.90
2023-05-23T10:21:30.568Z,235.94
2023-05-23T10:22:31.289Z,236.26
2023-05-23T10:23:31.288Z,235.89
2023-05-23T10:24:30.431Z,237.33
2023-05-23T10:25:30.412Z,235.18
2023-05-23T10:26:30.358Z,234.62
2023-05-23T10:27:30.316Z,235.02
2023-05-23T10:28:30.263Z,233.94
2023-05-23T10:29:30.226Z,234.04
2023-05-23T10:30:30.202Z,234.29
2023-05-23T10:31:30.268Z,233.43
2023-05-23T10:32:30.154Z,233.05
2023-05-23T10:33:31.929Z,232.90
2023-05-23T10:34:30.043Z,234.39
2023-05-23T10:35:30.062Z,233.04
2023-05-23T10:36:29.985Z,232.21
2023-05-23T10:37:29.946Z,232.61
2023-05-23T10:38:30.858Z,232.77
2023-05-23T10:39:29.865Z,232.71
2023-05-23T10:40:29.831Z,231.41
2023-05-23T10:41:29.794Z,232.59
2023-05-23T10:42:29.760Z,231.63
2023-05-23T10:43:29.753Z,232.19
2023-05-23T10:44:29.745Z,230.98
2023-05-23T10:45:29.733Z,230.51
2023-05-23T10:46:29.800Z,229.85
2023-05-23T10:47:29.614Z,229.05
2023-05-23T10:48:29.537Z,229.76
2023-05-23T10:49:29.538Z,229.91
2023-05-23T10:50:29.503Z,229.78
2023-05-23T10:51:29.472Z,229.45
2023-05-23T10:52:29.372Z,228.88
2023-05-23T10:53:29.346Z,230.56
2023-05-23T10:54:29.317Z,227.75
2023-05-23T10:55:29.310Z,227.88
2023-05-23T10:56:29.314Z,228.24
2023-05-23T10:57:29.315Z,227.66
2023-05-23T10:58:29.309Z,228.88
2023-05-23T10:59:29.314Z,227.44
2023-05-23T11:00:29.343Z,228.71
2023-05-23T11:01:29.392Z,228.04
2023-05-23T11:02:29.434Z,227.85
2023-05-23T11:03:29.419Z,228.55
2023-05-23T11:04:29.391Z,227.96
2023-05-23T11:05:29.397Z,227.92
2023-05-23T11:06:29.344Z,228.39
2023-05-23T11:07:29.348Z,227.91
2023-05-23T11:08:43.250Z,228.34
2023-05-23T11:09:30.316Z,228.40
2023-05-23T11:10:29.294Z,228.48
2023-05-23T11:11:29.254Z,228.86
2023-05-23T11:12:29.214Z,228.71
2023-05-23T11:13:29.191Z,228.09
2023-05-23T11:14:29.909Z,229.13
2023-05-23T11:15:29.117Z,228.09
2023-05-23T11:16:29.220Z,226.56
2023-05-23T11:17:29.097Z,226.76
2023-05-23T11:18:29.113Z,227.59
2023-05-23T11:19:29.252Z,227.13
2023-05-23T11:20:28.967Z,225.52
2023-05-23T11:21:28.958Z,226.64
2023-05-23T11:22:28.971Z,227.29
2023-05-23T11:23:28.975Z,226.43
2023-05-23T11:24:28.996Z,225.31
2023-05-23T11:25:28.999Z,225.33
2023-05-23T11:26:29.016Z,223.67
2023-05-23T11:27:29.043Z,224.77
2023-05-23T11:28:29.881Z,224.92
2023-05-23T11:29:29.209Z,223.93
2023-05-23T11:30:29.138Z,224.37
2023-05-23T11:31:29.171Z,224.36
2023-05-23T11:32:29.110Z,223.77
2023-05-23T11:33:29.111Z,223.32
2023-05-23T11:34:29.127Z,222.11
2023-05-23T11:35:29.163Z,222.36
2023-05-23T11:36:29.159Z,222.36
2023-05-23T11:37:29.182Z,220.40
2023-05-23T11:38:31.898Z,221.55
2023-05-23T11:39:29.172Z,221.27
2023-05-23T11:40:29.146Z,220.99
2023-05-23T11:41:29.093Z,220.91
2023-05-23T11:42:29.063Z,219.83
2023-05-23T11:43:29.896Z,220.57
2023-05-23T11:44:29.006Z,220.36
2023-05-23T11:45:28.974Z,219.14
2023-05-23T11:46:29.057Z,217.86
2023-05-23T11:47:28.953Z,217.86
2023-05-23T11:48:28.848Z,218.27
2023-05-23T11:49:28.813Z,217.87
2023-05-23T11:50:28.793Z,216.51
2023-05-23T11:51:28.748Z,216.45
2023-05-23T11:52:29.458Z,214.13
2023-05-23T11:53:28.667Z,215.69
2023-05-23T11:54:28.713Z,213.31
2023-05-23T11:55:28.603Z,214.76
2023-05-23T11:56:28.644Z,213.20
2023-05-23T11:57:28.542Z,214.23
2023-05-23T11:58:28.487Z,212.09
2023-05-23T11:59:28.494Z,213.01
2023-05-23T12:00:28.427Z,211.81
2023-05-23T12:01:28.372Z,212.05
2023-05-23T12:02:28.428Z,211.54
2023-05-23T12:03:28.464Z,210.27
2023-05-23T12:04:28.296Z,210.34
2023-05-23T12:05:28.224Z,209.55
2023-05-23T12:06:28.194Z,210.14
2023-05-23T12:07:28.205Z,209.48
2023-05-23T12:08:28.123Z,209.96
2023-05-23T12:09:28.130Z,208.25
2023-05-23T12:10:28.903Z,208.45
2023-05-23T12:11:28.028Z,207.91
2023-05-23T12:12:28.752Z,208.34
2023-05-23T12:13:27.951Z,206.55
2023-05-23T12:14:27.924Z,207.77
2023-05-23T12:15:27.892Z,206.49
2023-05-23T12:16:27.939Z,206.99
2023-05-23T12:17:27.920Z,205.61
2023-05-23T12:18:27.765Z,205.65
2023-05-23T12:19:27.770Z,205.72
2023-05-23T12:20:27.694Z,206.35
2023-05-23T12:21:27.666Z,205.61
2023-05-23T12:22:27.653Z,204.78
2023-05-23T12:23:28.428Z,203.33
2023-05-23T12:24:27.644Z,204.86
2023-05-23T12:25:27.645Z,204.25
2023-05-23T12:26:27.631Z,204.36
2023-05-23T12:27:27.636Z,204.68
2023-05-23T12:28:27.624Z,204.62
2023-05-23T12:29:27.625Z,201.39
2023-05-23T12:30:27.622Z,202.97
2023-05-23T12:31:27.671Z,201.73
2023-05-23T12:32:28.434Z,203.07
2023-05-23T12:33:27.599Z,202.47
2023-05-23T12:34:27.584Z,201.49
2023-05-23T12:35:27.590Z,200.25